createdAt,value
2023-01-18T00:02:32.237Z,97494.56
2023-01-18T00:05:39.922Z,97498.97
2023-01-18T00:08:42.732Z,97492.91
2023-01-18T00:11:45.601Z,97488.50
2023-01-18T00:14:48.214Z,97473.38
2023-01-18T00:17:53.924Z,97465.31
2023-01-18T00:21:00.407Z,97462.78
2023-01-18T00:24:03.237Z,97460.22
2023-01-18T00:27:05.789Z,97472.56
2023-01-18T00:30:09.548Z,97493.72
2023-01-18T00:33:12.115Z,97485.72
2023-01-18T00:36:15.818Z,97487.50
2023-01-18T00:39:18.469Z,97508.63
2023-01-18T00:42:39.909Z,97509.47
2023-01-18T00:45:42.989Z,97503.25
2023-01-18T00:48:46.054Z,97489.09
2023-01-18T00:51:48.654Z,97500.56
2023-01-18T00:54:51.551Z,97512.16
2023-01-18T00:57:54.213Z,97540.38
2023-01-18T01:00:57.105Z,97555.44
2023-01-18T01:04:18.739Z,97573.03
2023-01-18T01:07:21.577Z,97559.72
2023-01-18T01:10:24.236Z,97549.03
2023-01-18T01:13:45.475Z,97563.13
2023-01-18T01:17:06.722Z,97578.16
2023-01-18T01:20:29.777Z,97576.28
2023-01-18T01:23:50.891Z,97568.28
2023-01-18T01:26:53.781Z,97567.41
2023-01-18T01:29:56.393Z,97548.88
2023-01-18T01:32:59.474Z,97514.34
2023-01-18T01:36:07.668Z,97497.59
2023-01-18T01:39:11.270Z,97523.31
2023-01-18T01:42:13.999Z,97562.19
2023-01-18T01:45:19.645Z,97571.91
2023-01-18T01:48:22.206Z,97570.97
2023-01-18T01:51:25.132Z,97570.03
2023-01-18T01:54:36.414Z,97574.47
2023-01-18T01:57:53.227Z,97571.78
2023-01-18T02:00:55.793Z,97561.19
2023-01-18T02:04:01.549Z,97546.97
2023-01-18T02:07:04.472Z,97539.00
2023-01-18T02:10:07.847Z,97537.22
2023-01-18T02:13:11.099Z,97541.78
2023-01-18T02:16:19.969Z,97539.16
2023-01-18T02:19:44.739Z,97537.34
2023-01-18T02:23:07.302Z,97543.62
2023-01-18T02:26:21.994Z,97553.34
2023-01-18T02:29:34.276Z,97551.56
2023-01-18T02:33:02.301Z,97557.75
2023-01-18T02:36:06.979Z,97578.00
2023-01-18T02:39:38.496Z,97574.44
2023-01-18T02:43:00.917Z,97585.09
2023-01-18T02:46:24.706Z,97591.25
2023-01-18T02:49:32.203Z,97591.19
2023-01-18T02:52:39.364Z,97605.34
2023-01-18T02:56:16.851Z,97593.78
2023-01-18T02:59:23.622Z,97589.47
2023-01-18T03:02:26.734Z,97563.63
2023-01-18T03:05:30.525Z,97559.25
2023-01-18T03:08:36.406Z,97555.75
2023-01-18T03:11:41.327Z,97554.91
2023-01-18T03:15:13.932Z,97569.91
2023-01-18T03:18:40.365Z,97581.44
2023-01-18T03:21:48.837Z,97583.25
2023-01-18T03:24:51.589Z,97565.53
2023-01-18T03:28:13.737Z,97584.09
2023-01-18T03:31:59.616Z,97592.94
2023-01-18T03:35:09.169Z,97593.81
2023-01-18T03:38:12.035Z,97573.44
2023-01-18T03:41:15.490Z,97561.06
2023-01-18T03:44:32.037Z,97559.25
2023-01-18T03:47:35.146Z,97557.50
2023-01-18T03:50:53.667Z,97559.28
2023-01-18T03:54:10.391Z,97558.41
2023-01-18T03:57:47.576Z,97555.72
2023-01-18T04:00:52.716Z,97557.47
2023-01-18T04:03:55.611Z,97560.22
2023-01-18T04:06:58.228Z,97566.38
2023-01-18T04:10:01.218Z,97576.19
2023-01-18T04:13:03.763Z,97551.38
2023-01-18T04:16:07.104Z,97545.25
2023-01-18T04:19:09.661Z,97564.88
2023-01-18T04:22:12.592Z,97562.19
2023-01-18T04:25:15.218Z,97556.78
2023-01-18T04:28:25.409Z,97551.47
2023-01-18T04:31:28.342Z,97566.59
2023-01-18T04:34:32.187Z,97586.00
2023-01-18T04:37:34.816Z,97581.53
2023-01-18T04:40:37.570Z,97579.88
2023-01-18T04:43:40.025Z,97588.69
2023-01-18T04:46:43.181Z,97581.56
2023-01-18T04:49:45.780Z,97585.16
2023-01-18T04:52:48.673Z,97596.66
2023-01-18T04:55:51.236Z,97604.66
2023-01-18T04:58:54.699Z,97601.97
2023-01-18T05:01:57.765Z,97613.44
2023-01-18T05:05:00.755Z,97614.31
2023-01-18T05:08:03.386Z,97627.59
2023-01-18T05:11:11.089Z,97635.56
2023-01-18T05:14:13.741Z,97651.44
2023-01-18T05:17:16.696Z,97662.94
2023-01-18T05:20:19.199Z,97664.66
2023-01-18T05:23:22.664Z,97670.84
2023-01-18T05:26:25.288Z,97675.28
2023-01-18T05:29:28.129Z,97673.53
2023-01-18T05:32:30.746Z,97686.91
2023-01-18T05:35:33.598Z,97686.88
2023-01-18T05:38:36.275Z,97695.69
2023-01-18T05:41:39.209Z,97700.94
2023-01-18T05:44:41.783Z,97703.69
2023-01-18T05:47:45.279Z,97707.19
2023-01-18T05:50:48.908Z,97701.88
2023-01-18T05:53:52.086Z,97706.31
2023-01-18T05:56:54.694Z,97700.19
2023-01-18T05:59:57.599Z,97695.75
2023-01-18T06:03:01.317Z,97686.88
2023-01-18T06:06:04.531Z,97684.25
2023-01-18T06:09:07.198Z,97680.97
2023-01-18T06:12:10.369Z,97690.63
2023-01-18T06:15:13.671Z,97705.75
2023-01-18T06:18:16.767Z,97701.28
2023-01-18T06:21:19.361Z,97688.25
2023-01-18T06:24:22.388Z,97718.97
2023-01-18T06:27:25.115Z,97706.63
2023-01-18T06:30:28.263Z,97711.94
2023-01-18T06:33:30.914Z,97716.53
2023-01-18T06:36:33.824Z,97703.53
2023-01-18T06:39:36.585Z,97722.69
2023-01-18T06:42:40.025Z,97727.94
2023-01-18T06:45:42.700Z,97720.28
2023-01-18T06:48:45.717Z,97739.47
2023-01-18T06:51:48.533Z,97738.69
2023-01-18T06:57:56.252Z,97753.56
2023-01-18T07:01:00.623Z,97747.44
2023-01-18T07:04:03.436Z,97754.44
2023-01-18T07:07:06.542Z,97750.88
2023-01-18T07:10:09.887Z,97750.75
2023-01-18T07:13:12.838Z,97755.13
2023-01-18T07:16:21.128Z,97772.84
2023-01-18T07:19:24.006Z,97772.16
2023-01-18T07:22:28.391Z,97771.94
2023-01-18T07:25:31.377Z,97790.28
2023-01-18T07:28:34.491Z,97793.91
2023-01-18T07:31:38.417Z,97775.63
2023-01-18T07:34:41.068Z,97801.88
2023-01-18T07:37:48.548Z,97805.44
2023-01-18T07:40:51.348Z,97810.53
2023-01-18T07:43:55.863Z,97789.59
2023-01-18T07:46:58.682Z,97810.34
2023-01-18T07:50:02.224Z,97820.91
2023-01-18T07:53:07.231Z,97835.59
2023-01-18T07:56:15.618Z,97839.91
2023-01-18T07:59:18.296Z,97845.16
2023-01-18T08:02:21.907Z,97853.84
2023-01-18T08:05:26.903Z,97846.72
2023-01-18T08:08:30.031Z,97856.63
2023-01-18T08:11:32.980Z,97851.91
2023-01-18T08:14:35.971Z,97850.94
2023-01-18T08:17:39.077Z,97875.50
2023-01-18T08:20:45.942Z,97894.72
2023-01-18T08:23:49.169Z,97902.44
2023-01-18T08:26:51.816Z,97905.72
2023-01-18T08:29:54.787Z,97911.06
2023-01-18T08:32:59.822Z,97916.75
2023-01-18T08:36:03.033Z,97922.38
2023-01-18T08:39:05.648Z,97952.34
2023-01-18T08:42:12.204Z,97959.34
2023-01-18T08:45:15.811Z,97949.88
2023-01-18T08:48:18.924Z,97957.66
2023-01-18T08:51:23.248Z,97973.16
2023-01-18T08:54:26.641Z,97985.22
2023-01-18T08:57:29.379Z,97991.44
2023-01-18T09:00:32.879Z,97992.38
2023-01-18T09:03:35.812Z,97987.94
2023-01-18T09:06:38.859Z,97996.72
2023-01-18T09:09:42.047Z,98003.44
2023-01-18T09:12:45.559Z,98011.03
2023-01-18T09:15:48.712Z,98012.59
2023-01-18T09:18:52.467Z,98009.31
2023-01-18T09:21:55.818Z,98015.66
2023-01-18T09:24:59.474Z,97990.50
2023-01-18T09:28:03.488Z,98018.50
2023-01-18T09:31:10.947Z,98031.16
2023-01-18T09:34:19.417Z,98040.06
2023-01-18T09:37:22.935Z,98042.78
2023-01-18T09:40:37.627Z,98040.75
2023-01-18T09:43:48.426Z,98050.47
2023-01-18T09:47:01.823Z,98053.19
2023-01-18T09:50:16.086Z,98052.28
2023-01-18T09:53:46.899Z,98046.31
2023-01-18T09:56:57.400Z,98060.62
2023-01-18T10:00:01.182Z,98067.69
2023-01-18T10:03:11.707Z,98065.81
2023-01-18T10:06:43.694Z,98076.44
2023-01-18T10:09:53.047Z,98082.78
2023-01-18T10:13:21.741Z,98089.16
2023-01-18T10:16:25.397Z,98090.16
2023-01-18T10:19:30.319Z,98104.09
2023-01-18T10:22:45.686Z,98120.69
2023-01-18T10:25:57.272Z,98128.97
2023-01-18T10:29:14.633Z,98136.13
2023-01-18T10:32:21.265Z,98139.75
2023-01-18T10:35:33.218Z,98156.91
2023-01-18T10:38:36.325Z,98167.84
2023-01-18T10:41:40.832Z,98154.66
2023-01-18T10:44:43.834Z,98150.00
2023-01-18T10:47:50.733Z,98170.13
2023-01-18T10:51:02.181Z,98178.50
2023-01-18T10:54:26.910Z,98190.75
2023-01-18T10:57:43.494Z,98198.47
2023-01-18T11:00:53.621Z,98199.78
2023-01-18T11:04:08.277Z,98198.53
2023-01-18T11:07:11.362Z,98203.03
2023-01-18T11:10:32.450Z,98211.13
2023-01-18T11:13:42.735Z,98218.13
2023-01-18T11:16:57.830Z,98213.38
2023-01-18T11:20:08.351Z,98219.03
2023-01-18T11:23:14.110Z,98219.00
2023-01-18T11:26:19.316Z,98224.09
2023-01-18T11:29:28.336Z,98220.06
2023-01-18T11:32:33.719Z,98232.28
2023-01-18T11:35:37.346Z,98233.69
2023-01-18T11:38:41.559Z,98243.91
2023-01-18T11:41:44.474Z,98248.03
2023-01-18T11:45:04.488Z,98253.03
2023-01-18T11:48:13.301Z,98248.22
2023-01-18T11:51:32.155Z,98262.25
2023-01-18T11:54:47.041Z,98262.75
2023-01-18T11:57:51.408Z,98272.09
2023-01-18T12:01:25.217Z,98278.41
2023-01-18T12:04:40.044Z,98278.03
2023-01-18T12:07:45.991Z,98277.50
2023-01-18T12:11:20.196Z,98297.06
2023-01-18T12:14:45.187Z,98299.03
2023-01-18T12:18:32.643Z,98288.00
2023-01-18T12:22:00.245Z,98292.56
2023-01-18T12:25:16.438Z,98295.94
2023-01-18T12:28:26.489Z,98308.22
2023-01-18T12:31:53.380Z,98314.03
2023-01-18T12:35:23.359Z,98315.25
2023-01-18T12:38:32.560Z,98316.06
2023-01-18T12:41:50.004Z,98307.59
2023-01-18T12:44:58.457Z,98306.12
2023-01-18T12:48:24.809Z,98303.50
2023-01-18T12:51:32.546Z,98320.28
2023-01-18T12:54:55.660Z,98325.63
2023-01-18T12:58:00.368Z,98340.34
2023-01-18T13:01:06.032Z,98336.47
2023-01-18T13:04:16.872Z,98352.50
2023-01-18T13:07:25.774Z,98356.81
2023-01-18T13:10:29.346Z,98348.78
2023-01-18T13:13:32.466Z,98352.38
2023-01-18T13:16:50.288Z,98357.72
2023-01-18T13:19:56.092Z,98369.94
2023-01-18T13:23:17.802Z,98374.94
2023-01-18T13:26:31.315Z,98381.84
2023-01-18T13:29:34.454Z,98394.41
2023-01-18T13:32:38.038Z,98399.03
2023-01-18T13:35:50.833Z,98400.13
2023-01-18T13:38:58.497Z,98404.53
2023-01-18T13:42:04.506Z,98407.91
2023-01-18T13:45:14.890Z,98404.22
2023-01-18T13:48:43.465Z,98401.59
2023-01-18T13:51:52.096Z,98401.88
2023-01-18T13:54:55.094Z,98392.69
2023-01-18T13:57:58.338Z,98391.22
2023-01-18T14:01:03.905Z,98382.84
2023-01-18T14:04:22.944Z,98382.31
2023-01-18T14:07:25.596Z,98386.22
2023-01-18T14:10:33.361Z,98404.97
2023-01-18T14:14:01.405Z,98419.38
2023-01-18T14:17:15.513Z,98433.00
2023-01-18T14:20:36.650Z,98463.94
2023-01-18T14:23:57.982Z,98455.78
2023-01-18T14:27:01.129Z,98452.06
2023-01-18T14:30:12.134Z,98452.03
2023-01-18T14:33:24.653Z,98452.91
2023-01-18T14:36:28.981Z,98451.06
2023-01-18T14:39:33.421Z,98458.16
2023-01-18T14:42:41.526Z,98467.97
2023-01-18T14:45:57.912Z,98473.28
2023-01-18T14:49:01.811Z,98461.81
2023-01-18T14:52:07.764Z,98470.81
2023-01-18T14:55:24.026Z,98478.97
2023-01-18T14:58:27.609Z,98487.97
2023-01-18T15:01:37.232Z,98473.22
2023-01-18T15:04:45.505Z,98498.94
2023-01-18T15:07:55.381Z,98507.91
2023-01-18T15:10:58.660Z,98520.50
2023-01-18T15:14:02.050Z,98523.37
2023-01-18T15:17:21.487Z,98534.25
2023-01-18T15:20:24.547Z,98533.56
2023-01-18T15:23:27.637Z,98530.19
2023-01-18T15:27:00.870Z,98527.66
2023-01-18T15:30:12.242Z,98528.66
2023-01-18T15:33:15.697Z,98528.91
2023-01-18T15:36:18.383Z,98533.53
2023-01-18T15:39:21.314Z,98538.06
2023-01-18T15:42:49.843Z,98543.34
2023-01-18T15:45:55.180Z,98554.09
2023-01-18T15:48:58.420Z,98540.03
2023-01-18T15:52:03.045Z,98549.00
2023-01-18T15:55:07.639Z,98561.47
2023-01-18T15:58:31.244Z,98564.97
2023-01-18T16:01:36.956Z,98565.91
2023-01-18T16:04:40.798Z,98563.31
2023-01-18T16:07:43.426Z,98567.66
2023-01-18T16:10:54.750Z,98578.34
2023-01-18T16:13:59.271Z,98579.28
2023-01-18T16:17:18.069Z,98580.19
2023-01-18T16:20:20.844Z,98591.94
2023-01-18T16:23:23.717Z,98588.53
2023-01-18T16:26:29.764Z,98584.16
2023-01-18T16:29:44.791Z,98590.41
2023-01-18T16:32:48.002Z,98572.78
2023-01-18T16:35:51.071Z,98583.44
2023-01-18T16:38:53.702Z,98581.75
2023-01-18T16:41:57.461Z,98578.22
2023-01-18T16:45:00.099Z,98584.47
2023-01-18T16:48:04.539Z,98591.59
2023-01-18T16:51:13.542Z,98594.34
2023-01-18T16:54:16.427Z,98597.94
2023-01-18T16:57:23.249Z,98606.91
2023-01-18T17:00:30.826Z,98620.34
2023-01-18T17:03:34.605Z,98624.88
2023-01-18T17:06:40.927Z,98632.97
2023-01-18T17:09:48.665Z,98653.34
2023-01-18T17:12:52.041Z,98669.25
2023-01-18T17:15:54.655Z,98662.88
2023-01-18T17:18:57.558Z,98659.37
2023-01-18T17:22:00.516Z,98659.37
2023-01-18T17:25:03.565Z,98655.09
2023-01-18T17:28:06.380Z,98649.09
2023-01-18T17:31:09.319Z,98653.63
2023-01-18T17:34:18.487Z,98655.47
2023-01-18T17:37:21.486Z,98636.09
2023-01-18T17:40:38.166Z,98634.47
2023-01-18T17:43:42.811Z,98639.06
2023-01-18T17:46:45.568Z,98647.03
2023-01-18T17:49:48.704Z,98656.78
2023-01-18T17:52:52.657Z,98667.50
2023-01-18T17:55:55.447Z,98671.09
2023-01-18T17:58:58.041Z,98674.59
2023-01-18T18:02:00.969Z,98691.34
2023-01-18T18:05:04.516Z,98716.12
2023-01-18T18:08:07.773Z,98725.69
2023-01-18T18:11:12.294Z,98738.09
2023-01-18T18:14:15.459Z,98732.84
2023-01-18T18:17:18.468Z,98717.81
2023-01-18T18:20:22.742Z,98720.50
2023-01-18T18:23:28.554Z,98725.75
2023-01-18T18:26:31.225Z,98730.16
2023-01-18T18:29:34.434Z,98731.03
2023-01-18T18:32:37.474Z,98736.31
2023-01-18T18:35:42.117Z,98753.06
2023-01-18T18:38:44.838Z,98752.13
2023-01-18T18:41:48.298Z,98760.09
2023-01-18T18:44:51.418Z,98772.47
2023-01-18T18:47:54.499Z,98764.47
2023-01-18T18:50:58.524Z,98767.09
2023-01-18T18:54:02.769Z,98756.47
2023-01-18T18:57:05.499Z,98757.38
2023-01-18T19:00:10.510Z,98750.28
2023-01-18T19:03:13.631Z,98751.19
2023-01-18T19:06:16.844Z,98751.19
2023-01-18T19:09:20.134Z,98755.62
2023-01-18T19:12:23.340Z,98759.19
2023-01-18T19:15:25.884Z,98756.53
2023-01-18T19:18:30.038Z,98758.31
2023-01-18T19:21:33.150Z,98750.34
2023-01-18T19:24:36.998Z,98745.06
2023-01-18T19:27:40.054Z,98742.44
2023-01-18T19:30:44.591Z,98745.13
2023-01-18T19:33:47.563Z,98746.94
2023-01-18T19:36:50.689Z,98745.22
2023-01-18T19:39:53.363Z,98747.06
2023-01-18T19:42:59.825Z,98756.00
2023-01-18T19:46:07.341Z,98750.69
2023-01-18T19:49:10.443Z,98762.25
2023-01-18T19:52:14.132Z,98758.72
2023-01-18T19:55:17.493Z,98755.19
2023-01-18T19:58:20.358Z,98756.97
2023-01-18T20:01:35.846Z,98759.66
2023-01-18T20:04:39.454Z,98754.38
2023-01-18T20:07:42.651Z,98755.31
2023-01-18T20:10:45.727Z,98754.41
2023-01-18T20:13:49.713Z,98754.41
2023-01-18T20:16:52.756Z,98749.97
2023-01-18T20:19:55.603Z,98751.72
2023-01-18T20:22:59.022Z,98758.81
2023-01-18T20:26:02.196Z,98759.72
2023-01-18T20:29:08.531Z,98752.59
2023-01-18T20:32:17.236Z,98778.25
2023-01-18T20:35:20.630Z,98785.34
2023-01-18T20:38:23.508Z,98792.44
2023-01-18T20:41:26.657Z,98805.72
2023-01-18T20:44:29.461Z,98809.22
2023-01-18T20:47:33.014Z,98795.00
2023-01-18T20:50:35.850Z,98794.97
2023-01-18T20:53:38.695Z,98785.22
2023-01-18T20:56:41.358Z,98804.78
2023-01-18T20:59:44.707Z,98795.94
2023-01-18T21:02:47.949Z,98801.25
2023-01-18T21:05:50.920Z,98802.09
2023-01-18T21:08:54.530Z,98809.19
2023-01-18T21:11:57.520Z,98817.19
2023-01-18T21:15:00.229Z,98808.28
2023-01-18T21:18:04.297Z,98808.28
2023-01-18T21:21:07.153Z,98813.56
2023-01-18T21:24:10.143Z,98811.75
2023-01-18T21:27:12.912Z,98817.88
2023-01-18T21:30:16.685Z,98818.75
2023-01-18T21:33:19.705Z,98819.63
2023-01-18T21:36:23.198Z,98814.25
2023-01-18T21:39:26.023Z,98828.44
2023-01-18T21:42:47.872Z,98830.28
2023-01-18T21:45:58.844Z,98839.06
2023-01-18T21:49:06.680Z,98847.94
2023-01-18T21:52:27.917Z,98843.50
2023-01-18T21:55:30.726Z,98846.12
2023-01-18T21:58:52.425Z,98842.59
2023-01-18T22:01:55.424Z,98853.22
2023-01-18T22:05:03.320Z,98847.00
2023-01-18T22:08:06.028Z,98852.31
2023-01-18T22:11:09.164Z,98860.31
2023-01-18T22:14:11.879Z,98876.28
2023-01-18T22:17:14.718Z,98884.28
2023-01-18T22:20:18.355Z,98875.41
2023-01-18T22:23:21.206Z,98864.75
2023-01-18T22:26:25.326Z,98874.47
2023-01-18T22:29:28.247Z,98879.81
2023-01-18T22:32:30.805Z,98883.34
2023-01-18T22:35:33.663Z,98875.41
2023-01-18T22:38:37.386Z,98876.28
2023-01-18T22:41:40.406Z,98872.75
2023-01-18T22:44:42.955Z,98874.53
2023-01-18T22:47:45.865Z,98875.44
2023-01-18T22:50:55.340Z,98880.72
2023-01-18T22:53:58.220Z,98883.38
2023-01-18T22:57:00.843Z,98878.94
2023-01-18T23:00:07.839Z,98881.59
2023-01-18T23:03:10.468Z,98873.56
2023-01-18T23:06:13.504Z,98864.69
2023-01-18T23:09:17.571Z,98863.84
2023-01-18T23:12:20.593Z,98865.56
2023-01-18T23:15:41.642Z,98861.16
2023-01-18T23:18:44.497Z,98854.94
2023-01-18T23:21:47.513Z,98854.03
2023-01-18T23:24:50.389Z,98855.78
2023-01-18T23:27:52.904Z,98850.50
2023-01-18T23:30:56.213Z,98848.69
2023-01-18T23:33:58.845Z,98844.28
2023-01-18T23:37:01.808Z,98862.00
2023-01-18T23:40:23.533Z,98854.91
2023-01-18T23:43:44.873Z,98854.03
2023-01-18T23:47:05.734Z,98859.34
2023-01-18T23:50:27.666Z,98852.25
2023-01-18T23:53:48.780Z,98862.00
2023-01-18T23:56:51.674Z,98867.28
2023-01-18T23:59:54.162Z,98872.53
